Terminal Aerodrome Forecast
Issued by NWS

Home | Current Version | Previous Version | Text Only | Print | Product List | Glossary On
Versions: 1 2 3 4 5 6 7 8 9 10 11 12 13 14 15 16
000
FTUS46 KSEW 260500
TAFCLM
TAF
KCLM 260540Z 2606/2706 28009KT P6SM SKC
     FM261000 28005KT P6SM SCT015
     FM261200 26004KT 5SM BR BKN010
     FM261800 VRB04KT P6SM FEW025
     FM262100 33008KT P6SM SKC=

USA.gov is the U.S. government's official web portal to all federal, state and local government web resources and services.